createdAt,value
2017-09-17T00:00:43.375Z,7.80
2017-09-17T00:03:12.628Z,7.80
2017-09-17T00:05:41.900Z,7.70
2017-09-17T00:08:11.977Z,7.60
2017-09-17T00:10:41.997Z,7.70
2017-09-17T00:13:11.997Z,7.70
2017-09-17T00:15:41.303Z,7.70
2017-09-17T00:18:10.618Z,7.70
2017-09-17T00:20:40.698Z,7.70
2017-09-17T00:23:09.970Z,7.60
2017-09-17T00:25:39.334Z,7.70
2017-09-17T00:28:09.322Z,7.70
2017-09-17T00:30:38.556Z,7.60
2017-09-17T00:33:07.832Z,7.60
2017-09-17T00:35:37.138Z,7.50
2017-09-17T00:38:06.397Z,7.60
2017-09-17T00:40:35.761Z,7.50
2017-09-17T00:43:05.763Z,7.50
2017-09-17T00:45:35.014Z,7.50
2017-09-17T00:48:04.264Z,7.50
2017-09-17T00:50:33.610Z,7.50
2017-09-17T00:53:02.866Z,7.40
2017-09-17T00:55:32.117Z,7.40
2017-09-17T00:58:01.358Z,7.40
2017-09-17T01:00:30.773Z,7.40
2017-09-17T01:03:00.709Z,7.40
2017-09-17T01:05:30.824Z,7.30
2017-09-17T01:08:01.054Z,7.20
2017-09-17T01:10:30.303Z,7.20
2017-09-17T01:12:59.553Z,7.20
2017-09-17T01:15:29.557Z,7.20
2017-09-17T01:17:58.962Z,7.20
2017-09-17T01:20:28.195Z,7.20
2017-09-17T01:22:57.470Z,7.20
2017-09-17T01:25:26.704Z,7.10
2017-09-17T01:27:56.173Z,7.10
2017-09-17T01:30:26.233Z,7.20
2017-09-17T01:32:55.511Z,7.10
2017-09-17T01:35:24.744Z,7.20
2017-09-17T01:37:54.165Z,7.20
2017-09-17T01:40:23.415Z,7.30
2017-09-17T01:42:52.673Z,7.30
2017-09-17T01:45:21.924Z,7.30
2017-09-17T01:47:51.226Z,7.30
2017-09-17T01:50:20.522Z,7.30
2017-09-17T01:52:50.577Z,7.40
2017-09-17T01:55:19.806Z,7.40
2017-09-17T01:57:49.033Z,7.50
2017-09-17T02:00:19.165Z,7.50
2017-09-17T02:02:48.418Z,7.50
2017-09-17T02:05:17.694Z,7.60
2017-09-17T02:07:47.257Z,7.70
2017-09-17T02:10:16.648Z,7.70
2017-09-17T02:12:45.913Z,7.80
2017-09-17T02:15:15.155Z,7.80
2017-09-17T02:17:45.238Z,7.90
2017-09-17T02:20:14.500Z,8.00
2017-09-17T02:22:43.761Z,8.00
2017-09-17T02:25:12.992Z,8.00
2017-09-17T02:27:42.476Z,8.00
2017-09-17T02:30:12.479Z,8.00
2017-09-17T02:32:43.235Z,8.00
2017-09-17T02:35:12.634Z,8.00
2017-09-17T02:37:42.714Z,8.20
2017-09-17T02:40:11.962Z,8.20
2017-09-17T02:42:41.312Z,8.20
2017-09-17T02:45:10.478Z,8.30
2017-09-17T02:47:39.715Z,8.30
2017-09-17T02:50:08.976Z,8.40
2017-09-17T02:52:38.197Z,8.40
2017-09-17T02:55:07.492Z,8.40
2017-09-17T02:57:36.760Z,8.40
2017-09-17T03:00:06.761Z,8.50
2017-09-17T03:02:36.014Z,8.50
2017-09-17T03:05:05.246Z,8.50
2017-09-17T03:07:34.504Z,8.50
2017-09-17T03:10:03.736Z,8.50
2017-09-17T03:12:32.977Z,8.50
2017-09-17T03:15:02.992Z,8.60
2017-09-17T03:17:32.230Z,8.60
2017-09-17T03:20:01.697Z,8.60
2017-09-17T03:22:31.695Z,8.70
2017-09-17T03:25:02.450Z,8.70
2017-09-17T03:27:31.682Z,8.70
2017-09-17T03:30:00.953Z,8.80
2017-09-17T03:32:30.957Z,8.90
2017-09-17T03:35:00.197Z,8.90
2017-09-17T03:37:29.456Z,9.00
2017-09-17T03:39:58.687Z,9.00
2017-09-17T03:42:27.941Z,9.00
2017-09-17T03:44:57.206Z,9.00
2017-09-17T03:47:26.669Z,9.00
2017-09-17T03:49:55.962Z,9.10
2017-09-17T03:52:25.185Z,9.00
2017-09-17T03:54:54.442Z,9.00
2017-09-17T03:57:23.891Z,9.00
2017-09-17T03:59:53.920Z,8.90
2017-09-17T04:02:23.149Z,8.90
2017-09-17T04:04:52.397Z,8.90
2017-09-17T04:07:22.715Z,8.90
2017-09-17T04:09:51.943Z,8.90
2017-09-17T04:12:21.169Z,9.00
2017-09-17T04:14:50.418Z,9.00
2017-09-17T04:17:19.651Z,9.10
2017-09-17T04:19:49.022Z,9.10
2017-09-17T04:22:18.881Z,9.10
2017-09-17T04:24:48.317Z,9.20
2017-09-17T04:27:17.640Z,9.20
2017-09-17T04:29:47.040Z,9.20
2017-09-17T04:32:16.344Z,9.20
2017-09-17T04:34:45.578Z,9.20
2017-09-17T04:37:14.838Z,9.10
2017-09-17T04:39:45.577Z,9.00
2017-09-17T04:42:14.833Z,9.00
2017-09-17T04:44:44.074Z,9.10
2017-09-17T04:47:14.206Z,9.00
2017-09-17T04:49:43.460Z,9.00
2017-09-17T04:52:12.717Z,9.00
2017-09-17T04:54:41.984Z,9.00
2017-09-17T04:57:11.216Z,9.10
2017-09-17T04:59:41.243Z,9.10
2017-09-17T05:02:10.505Z,9.00
2017-09-17T05:04:39.749Z,9.10
2017-09-17T05:07:09.741Z,9.00
2017-09-17T05:09:39.143Z,9.00
2017-09-17T05:12:08.422Z,9.00
2017-09-17T05:14:37.755Z,9.00
2017-09-17T05:17:07.761Z,9.10
2017-09-17T05:19:37.786Z,9.20
2017-09-17T05:22:07.813Z,9.30
2017-09-17T05:24:37.073Z,9.30
2017-09-17T05:27:06.313Z,9.30
2017-09-17T05:29:36.534Z,9.50
2017-09-17T05:32:05.933Z,9.50
2017-09-17T05:34:35.168Z,9.50
2017-09-17T05:37:04.418Z,9.50
2017-09-17T05:39:35.174Z,9.60
2017-09-17T05:42:04.442Z,9.60
2017-09-17T05:44:33.746Z,9.70
2017-09-17T05:47:03.014Z,9.70
2017-09-17T05:49:33.045Z,9.90
2017-09-17T05:52:02.393Z,9.90
2017-09-17T05:54:32.614Z,10.10
2017-09-17T05:57:01.866Z,10.10
2017-09-17T05:59:31.107Z,10.20
2017-09-17T06:02:00.616Z,10.40
2017-09-17T06:04:29.890Z,10.50
2017-09-17T06:06:59.145Z,10.60
2017-09-17T06:09:28.388Z,10.70
2017-09-17T06:11:57.645Z,10.80
2017-09-17T06:14:27.569Z,10.90
2017-09-17T06:16:56.855Z,11.10
2017-09-17T06:19:26.898Z,11.10
2017-09-17T06:21:56.233Z,11.10
2017-09-17T06:24:25.498Z,11.30
2017-09-17T06:26:54.736Z,11.20
2017-09-17T06:29:24.178Z,11.30
2017-09-17T06:31:54.286Z,11.30
2017-09-17T06:34:23.530Z,11.30
2017-09-17T06:36:52.925Z,11.40
2017-09-17T06:39:22.200Z,11.50
2017-09-17T06:41:52.233Z,11.50
2017-09-17T06:44:21.466Z,11.50
2017-09-17T06:46:50.706Z,11.50
2017-09-17T06:49:20.242Z,11.60
2017-09-17T06:51:50.375Z,11.50
2017-09-17T06:54:19.687Z,11.50
2017-09-17T06:56:48.926Z,11.60
2017-09-17T06:59:18.324Z,11.70
2017-09-17T07:01:47.558Z,11.90
2017-09-17T07:04:17.590Z,12.60
2017-09-17T07:06:46.874Z,12.50
2017-09-17T07:09:16.122Z,12.90
2017-09-17T07:11:45.388Z,13.20
2017-09-17T07:14:14.627Z,13.50
2017-09-17T07:16:43.890Z,13.70
2017-09-17T07:19:13.134Z,13.80
2017-09-17T07:21:42.397Z,14.00
2017-09-17T07:24:12.537Z,14.20
2017-09-17T07:26:41.793Z,14.20
2017-09-17T07:29:11.842Z,14.30
2017-09-17T07:31:41.085Z,14.30
2017-09-17T07:34:10.349Z,14.30
2017-09-17T07:36:39.618Z,14.30
2017-09-17T07:39:09.751Z,14.70
2017-09-17T07:41:39.036Z,14.70
2017-09-17T07:44:09.037Z,14.80
2017-09-17T07:46:38.438Z,14.80
2017-09-17T07:49:07.690Z,15.20
2017-09-17T07:51:36.960Z,15.10
2017-09-17T07:54:06.202Z,15.20
2017-09-17T07:56:35.624Z,15.30
2017-09-17T07:59:04.951Z,15.50
2017-09-17T08:01:34.953Z,18.30
2017-09-17T08:04:04.214Z,18.30
2017-09-17T08:06:33.455Z,19.30
2017-09-17T08:09:02.725Z,20.70
2017-09-17T08:11:31.965Z,21.70
2017-09-17T08:14:01.217Z,21.40
2017-09-17T08:16:32.048Z,19.80
2017-09-17T08:19:01.322Z,19.70
2017-09-17T08:21:30.716Z,19.40
2017-09-17T08:24:00.841Z,19.10
2017-09-17T08:26:30.977Z,20.60
2017-09-17T08:29:00.406Z,20.60
2017-09-17T08:31:29.690Z,20.70
2017-09-17T08:33:58.958Z,20.30
2017-09-17T08:36:28.226Z,20.30
2017-09-17T08:38:57.507Z,20.80
2017-09-17T08:41:26.770Z,22.20
2017-09-17T08:43:56.806Z,21.20
2017-09-17T08:46:26.201Z,21.20
2017-09-17T08:48:56.214Z,20.10
2017-09-17T08:51:26.245Z,19.30
2017-09-17T08:53:55.523Z,19.30
2017-09-17T08:56:25.603Z,18.30
2017-09-17T08:58:54.867Z,18.30
2017-09-17T09:01:24.156Z,17.80
2017-09-17T09:03:53.549Z,17.40
2017-09-17T09:06:22.819Z,17.40
2017-09-17T09:08:52.096Z,17.30
2017-09-17T09:11:21.334Z,17.30
2017-09-17T09:13:50.632Z,17.70
2017-09-17T09:16:19.873Z,18.30
2017-09-17T09:18:49.175Z,18.80
2017-09-17T09:21:19.175Z,19.70
2017-09-17T09:23:48.597Z,19.70
2017-09-17T09:26:17.885Z,20.10
2017-09-17T09:28:48.005Z,19.90
2017-09-17T09:31:18.106Z,20.10
2017-09-17T09:33:48.132Z,20.10
2017-09-17T09:36:17.548Z,20.10
2017-09-17T09:38:47.555Z,21.70
2017-09-17T09:41:16.851Z,21.70
2017-09-17T09:43:46.089Z,23.00
2017-09-17T09:46:15.321Z,23.80
2017-09-17T09:48:44.600Z,24.00
2017-09-17T09:51:13.845Z,24.10
2017-09-17T09:53:43.106Z,24.80
2017-09-17T09:56:12.346Z,26.80
2017-09-17T09:58:41.606Z,28.10
2017-09-17T10:01:10.845Z,28.40
2017-09-17T10:03:40.146Z,27.70
2017-09-17T10:06:09.380Z,27.30
2017-09-17T10:08:38.665Z,25.90
2017-09-17T10:11:08.186Z,25.60
2017-09-17T10:13:38.208Z,23.50
2017-09-17T10:16:07.454Z,23.50
2017-09-17T10:18:36.753Z,23.60
2017-09-17T10:21:06.190Z,24.00
2017-09-17T10:23:36.214Z,24.80
2017-09-17T10:26:05.450Z,24.80
2017-09-17T10:28:34.740Z,24.10
2017-09-17T10:31:04.221Z,24.80
2017-09-17T10:33:34.258Z,26.60
2017-09-17T10:36:03.502Z,26.60
2017-09-17T10:38:32.765Z,28.00
2017-09-17T10:41:02.001Z,28.60
2017-09-17T10:43:31.250Z,28.40
2017-09-17T10:46:01.234Z,28.60
2017-09-17T10:48:30.463Z,28.80
2017-09-17T10:51:00.890Z,27.80
2017-09-17T10:53:30.941Z,28.00
2017-09-17T10:56:01.138Z,28.00
2017-09-17T10:58:31.162Z,28.60
2017-09-17T11:01:00.415Z,28.50
2017-09-17T11:03:29.706Z,28.50
2017-09-17T11:05:59.139Z,28.50
2017-09-17T11:08:28.385Z,28.00
2017-09-17T11:10:57.660Z,27.90
2017-09-17T11:13:26.900Z,29.10
2017-09-17T11:15:56.149Z,30.30
2017-09-17T11:18:26.186Z,29.20
2017-09-17T11:20:55.428Z,29.20
2017-09-17T11:23:24.750Z,28.80
2017-09-17T11:25:54.230Z,28.60
2017-09-17T11:28:23.780Z,28.10
2017-09-17T11:30:53.015Z,28.20
2017-09-17T11:33:22.294Z,27.90
2017-09-17T11:35:52.327Z,27.00
2017-09-17T11:38:21.589Z,27.00
2017-09-17T11:40:50.852Z,27.90
2017-09-17T11:43:20.094Z,28.50
2017-09-17T11:45:49.380Z,29.10
2017-09-17T11:48:18.637Z,29.00
2017-09-17T11:50:47.882Z,28.20
2017-09-17T11:53:17.131Z,28.00
2017-09-17T11:55:46.382Z,27.10
2017-09-17T11:58:15.639Z,25.30
2017-09-17T12:00:44.895Z,23.90
2017-09-17T12:03:14.174Z,22.70
2017-09-17T12:05:43.426Z,21.90
2017-09-17T12:08:12.699Z,21.50
2017-09-17T12:10:42.735Z,20.20
2017-09-17T12:13:12.005Z,20.10
2017-09-17T12:15:42.789Z,19.20
2017-09-17T12:18:12.159Z,19.10
2017-09-17T12:20:42.176Z,19.20
2017-09-17T12:23:11.577Z,19.20
2017-09-17T12:25:41.922Z,19.10
2017-09-17T12:28:12.038Z,19.20
2017-09-17T12:30:42.143Z,19.30
2017-09-17T12:33:11.378Z,19.20
2017-09-17T12:35:40.649Z,19.40
2017-09-17T12:38:09.901Z,19.00
2017-09-17T12:40:39.141Z,18.80
2017-09-17T12:43:10.019Z,19.10
2017-09-17T12:45:39.275Z,19.00
2017-09-17T12:48:08.528Z,19.20
2017-09-17T12:50:37.791Z,19.20
2017-09-17T12:53:07.799Z,18.80
2017-09-17T12:55:37.063Z,18.80
2017-09-17T12:58:06.298Z,18.50
2017-09-17T13:00:36.429Z,18.50
2017-09-17T13:03:07.160Z,18.70
2017-09-17T13:05:37.194Z,18.60
2017-09-17T13:08:06.462Z,18.60
2017-09-17T13:10:35.817Z,18.60
2017-09-17T13:13:05.110Z,18.80
2017-09-17T13:15:34.351Z,18.80
2017-09-17T13:18:03.607Z,18.80
2017-09-17T13:20:33.748Z,19.00
2017-09-17T13:23:03.021Z,19.00
2017-09-17T13:25:33.037Z,18.80
2017-09-17T13:28:02.301Z,18.80
2017-09-17T13:30:31.569Z,18.80
2017-09-17T13:33:00.818Z,18.80
2017-09-17T13:35:30.081Z,18.90
2017-09-17T13:37:59.331Z,18.80
2017-09-17T13:40:29.358Z,18.80
2017-09-17T13:42:59.366Z,18.40
2017-09-17T13:45:28.658Z,18.40
2017-09-17T13:47:58.678Z,18.10
2017-09-17T13:50:28.829Z,18.00
2017-09-17T13:52:58.838Z,18.20
2017-09-17T13:55:28.071Z,18.10
2017-09-17T13:57:57.553Z,18.20
2017-09-17T14:00:27.586Z,18.20
2017-09-17T14:02:56.876Z,18.30
2017-09-17T14:05:31.533Z,18.20
2017-09-17T14:11:13.650Z,18.60
2017-09-17T14:13:42.906Z,18.60
2017-09-17T14:16:12.152Z,18.90
2017-09-17T14:18:41.395Z,19.10
2017-09-17T14:21:10.672Z,19.40
2017-09-17T14:23:39.919Z,19.30
2017-09-17T14:26:09.217Z,19.40
2017-09-17T14:28:39.318Z,19.30
2017-09-17T14:31:08.566Z,19.30
2017-09-17T14:33:37.826Z,19.50
2017-09-17T14:36:07.101Z,19.60
2017-09-17T14:38:36.542Z,19.80
2017-09-17T14:41:06.659Z,18.90
2017-09-17T14:43:36.810Z,18.70
2017-09-17T14:46:06.054Z,18.70
2017-09-17T14:48:35.334Z,18.70
2017-09-17T14:51:04.605Z,18.70
2017-09-17T14:53:33.854Z,18.60
2017-09-17T14:56:03.122Z,18.50
2017-09-17T14:58:33.231Z,18.10
2017-09-17T15:01:02.530Z,18.10
2017-09-17T15:03:31.819Z,18.20
2017-09-17T15:06:01.051Z,18.30
2017-09-17T15:08:30.340Z,18.30
2017-09-17T15:10:59.569Z,18.30
2017-09-17T15:13:28.822Z,18.20
2017-09-17T15:15:58.063Z,17.80
2017-09-17T15:18:28.268Z,17.70
2017-09-17T15:20:58.287Z,17.60
2017-09-17T15:23:27.569Z,17.60
2017-09-17T15:25:56.806Z,17.40
2017-09-17T15:28:26.078Z,17.10
2017-09-17T15:30:56.110Z,17.00
2017-09-17T15:33:25.390Z,16.90
2017-09-17T15:35:54.625Z,16.90
2017-09-17T15:38:23.897Z,16.90
2017-09-17T15:40:54.027Z,16.60
2017-09-17T15:43:24.049Z,16.60
2017-09-17T15:45:53.299Z,16.60
2017-09-17T15:48:22.574Z,16.60
2017-09-17T15:50:52.130Z,16.50
2017-09-17T15:53:21.402Z,16.60
2017-09-17T15:55:50.662Z,16.80
2017-09-17T15:58:20.675Z,16.70
2017-09-17T16:00:50.070Z,16.70
2017-09-17T16:03:20.203Z,16.80
2017-09-17T16:05:50.224Z,16.90
2017-09-17T16:08:19.478Z,16.80
2017-09-17T16:10:48.913Z,16.90
2017-09-17T16:13:18.158Z,16.90
2017-09-17T16:15:47.410Z,16.90
2017-09-17T16:18:18.215Z,16.70
2017-09-17T16:20:47.460Z,16.60
2017-09-17T16:23:16.766Z,16.60
2017-09-17T16:25:46.133Z,16.60
2017-09-17T16:28:15.498Z,16.50
2017-09-17T16:30:44.744Z,16.40
2017-09-17T16:33:13.994Z,16.30
2017-09-17T16:35:43.353Z,16.20
2017-09-17T16:38:13.369Z,16.00
2017-09-17T16:40:42.630Z,16.00
2017-09-17T16:43:11.863Z,15.90
2017-09-17T16:45:41.105Z,15.70
2017-09-17T16:48:10.479Z,15.50
2017-09-17T16:50:39.742Z,15.40
2017-09-17T16:53:09.103Z,15.40
2017-09-17T16:55:39.274Z,14.90
2017-09-17T16:58:08.568Z,14.90
2017-09-17T17:00:37.833Z,14.70
2017-09-17T17:03:07.256Z,14.60
2017-09-17T17:05:36.525Z,14.50
2017-09-17T17:08:05.755Z,14.20
2017-09-17T17:10:35.898Z,13.70
2017-09-17T17:13:05.168Z,13.70
2017-09-17T17:15:34.490Z,13.70
2017-09-17T17:18:03.772Z,13.60
2017-09-17T17:20:33.039Z,13.60
2017-09-17T17:23:02.308Z,13.50
2017-09-17T17:25:32.454Z,13.30
2017-09-17T17:28:02.477Z,13.30
2017-09-17T17:30:31.844Z,13.30
2017-09-17T17:33:01.114Z,13.30
2017-09-17T17:35:30.460Z,13.30
2017-09-17T17:38:00.598Z,13.20
2017-09-17T17:40:30.617Z,13.20
2017-09-17T17:42:59.879Z,13.20
2017-09-17T17:45:29.125Z,13.10
2017-09-17T17:47:58.390Z,13.10
2017-09-17T17:50:27.709Z,13.00
2017-09-17T17:52:57.749Z,12.80
2017-09-17T17:55:27.022Z,12.80
2017-09-17T17:57:56.385Z,12.80
2017-09-17T18:00:25.831Z,12.80
2017-09-17T18:02:55.098Z,12.70
2017-09-17T18:05:24.524Z,12.70
2017-09-17T18:07:53.806Z,12.60
2017-09-17T18:10:23.053Z,12.50
2017-09-17T18:12:52.314Z,12.50
2017-09-17T18:15:21.584Z,12.40
2017-09-17T18:17:50.867Z,12.30
2017-09-17T18:20:20.125Z,12.10
2017-09-17T18:22:49.370Z,12.10
2017-09-17T18:25:18.635Z,12.00
2017-09-17T18:27:47.891Z,12.10
2017-09-17T18:30:17.257Z,12.10
2017-09-17T18:32:46.672Z,12.00
2017-09-17T18:35:16.027Z,11.90
2017-09-17T18:37:45.251Z,11.80
2017-09-17T18:40:15.287Z,11.60
2017-09-17T18:42:45.351Z,11.60
2017-09-17T18:45:14.599Z,11.50
2017-09-17T18:47:44.622Z,11.40
2017-09-17T18:50:13.943Z,11.40
2017-09-17T18:52:43.357Z,11.30
2017-09-17T18:55:12.608Z,11.30
2017-09-17T18:57:42.644Z,11.20
2017-09-17T19:00:11.898Z,11.20
2017-09-17T19:02:41.657Z,11.10
2017-09-17T19:05:10.878Z,11.10
2017-09-17T19:07:40.150Z,11.00
2017-09-17T19:10:09.430Z,10.90
2017-09-17T19:12:38.697Z,10.70
2017-09-17T19:15:07.968Z,10.70
2017-09-17T19:17:37.231Z,10.60
2017-09-17T19:20:06.492Z,10.50
2017-09-17T19:22:35.830Z,10.40
2017-09-17T19:25:06.598Z,10.40
2017-09-17T19:27:35.979Z,10.30
2017-09-17T19:30:05.218Z,10.30
2017-09-17T19:32:34.485Z,10.40
2017-09-17T19:35:03.842Z,10.30
2017-09-17T19:37:33.113Z,10.30
2017-09-17T19:40:02.497Z,10.30
2017-09-17T19:42:32.617Z,10.30
2017-09-17T19:45:02.729Z,10.20
2017-09-17T19:47:32.060Z,10.20
2017-09-17T19:50:01.478Z,10.10
2017-09-17T19:52:30.736Z,10.00
2017-09-17T19:54:59.986Z,10.00
2017-09-17T19:57:29.459Z,10.00
2017-09-17T19:59:59.457Z,10.00
2017-09-17T20:02:28.714Z,9.90
2017-09-17T20:04:57.979Z,9.80
2017-09-17T20:07:27.233Z,9.80
2017-09-17T20:09:56.519Z,9.70
2017-09-17T20:12:25.792Z,9.70
2017-09-17T20:14:55.045Z,9.60
2017-09-17T20:17:24.315Z,9.60
2017-09-17T20:19:53.545Z,9.50
2017-09-17T20:22:22.809Z,9.50
2017-09-17T20:24:52.087Z,9.50
2017-09-17T20:27:21.349Z,9.50
2017-09-17T20:29:50.639Z,9.40
2017-09-17T20:32:19.962Z,9.30
2017-09-17T20:34:49.238Z,9.40
2017-09-17T20:37:18.489Z,9.40
2017-09-17T20:39:47.725Z,9.40
2017-09-17T20:42:17.003Z,9.30
2017-09-17T20:44:46.250Z,9.30
2017-09-17T20:47:15.542Z,9.30
2017-09-17T20:49:44.957Z,9.30
2017-09-17T20:52:14.326Z,9.20
2017-09-17T20:54:44.422Z,9.20
2017-09-17T20:57:13.671Z,9.10
2017-09-17T20:59:42.926Z,9.00
2017-09-17T21:02:12.172Z,9.00
2017-09-17T21:04:41.425Z,9.00
2017-09-17T21:07:10.658Z,8.90
2017-09-17T21:09:39.930Z,8.90
2017-09-17T21:12:09.314Z,8.90
2017-09-17T21:14:39.318Z,8.80
2017-09-17T21:17:08.714Z,8.80
2017-09-17T21:19:38.152Z,8.70
2017-09-17T21:22:07.362Z,8.70
2017-09-17T21:24:36.602Z,8.70
2017-09-17T21:27:05.870Z,8.70
2017-09-17T21:29:35.138Z,8.70
2017-09-17T21:32:04.432Z,8.60
2017-09-17T21:34:33.863Z,8.60
2017-09-17T21:37:03.119Z,8.60
2017-09-17T21:39:32.361Z,8.50
2017-09-17T21:42:01.638Z,8.50
2017-09-17T21:44:31.093Z,8.50
2017-09-17T21:47:00.410Z,8.50
2017-09-17T21:49:29.845Z,8.50
2017-09-17T21:51:59.387Z,8.50
2017-09-17T21:54:28.864Z,8.50
2017-09-17T21:56:58.115Z,8.50
2017-09-17T21:59:27.376Z,8.40
2017-09-17T22:01:56.785Z,8.40
2017-09-17T22:04:26.263Z,8.40
2017-09-17T22:06:55.539Z,8.40
2017-09-17T22:09:24.821Z,8.40
2017-09-17T22:11:54.100Z,8.40
2017-09-17T22:14:23.353Z,8.30
2017-09-17T22:16:52.599Z,8.30
2017-09-17T22:19:21.847Z,8.30
2017-09-17T22:21:51.091Z,8.20
2017-09-17T22:24:20.461Z,8.20
2017-09-17T22:26:49.713Z,8.20
2017-09-17T22:29:18.946Z,8.20
2017-09-17T22:31:48.266Z,8.10
2017-09-17T22:34:17.541Z,8.20
2017-09-17T22:36:46.773Z,8.20
2017-09-17T22:39:16.017Z,8.30
2017-09-17T22:41:45.283Z,8.20
2017-09-17T22:44:14.515Z,8.30
2017-09-17T22:46:44.497Z,8.30
2017-09-17T22:49:13.749Z,8.30
2017-09-17T22:51:42.975Z,8.40
2017-09-17T22:54:12.299Z,8.40
2017-09-17T22:56:42.319Z,8.50
2017-09-17T22:59:11.579Z,8.50
2017-09-17T23:01:40.836Z,8.60
2017-09-17T23:04:10.933Z,8.70
2017-09-17T23:06:40.243Z,8.70
2017-09-17T23:09:10.300Z,8.70
2017-09-17T23:11:39.533Z,8.70
2017-09-17T23:14:08.811Z,8.70
2017-09-17T23:16:38.058Z,8.70
2017-09-17T23:19:07.321Z,8.70
2017-09-17T23:21:36.581Z,8.70
2017-09-17T23:24:05.823Z,8.60
2017-09-17T23:26:35.113Z,8.50
2017-09-17T23:29:04.353Z,8.50
2017-09-17T23:31:33.593Z,8.50
2017-09-17T23:34:02.900Z,8.40
2017-09-17T23:36:32.103Z,8.40
2017-09-17T23:39:01.407Z,8.40
2017-09-17T23:41:30.663Z,8.40
2017-09-17T23:43:59.906Z,8.30
2017-09-17T23:46:29.168Z,8.30
2017-09-17T23:48:58.569Z,8.30
2017-09-17T23:51:27.880Z,8.20
2017-09-17T23:53:57.892Z,8.10
2017-09-17T23:56:27.152Z,8.10
2017-09-17T23:58:56.385Z,8.10
